Terminal Aerodrome Forecast
Issued by NWS Duluth, MN

Home | Current Version | Previous Version | Text Only | Print | Product List | Glossary On
Versions: 1 2 3 4 5 6 7 8 9 10 11 12 13 14 15 16 17 18
000
FTUS43 KDLH 062300 RRA
TAFINL
TAF
KINL 062343Z 0700/0724 26006KT P6SM BKN100
     FM070300 24008KT P6SM SCT030 OVC060
     FM070600 24010KT 5SM -SN SCT015 OVC030
      TEMPO 0706/0709 2SM -SN BKN015
     FM070900 30010KT P6SM BKN030
     FM071500 33010G20KT P6SM SCT035=

USA.gov is the U.S. government's official web portal to all federal, state and local government web resources and services.